Time;durP1;ratioP1;P1;durP2;ratioP2;P2;SDS_P1;SDS_P2;PMS_P1;PMS_P2;Temp;Humidity;BMP_temperature;BMP_pressure;BME280_temperature;BME280_humidity;BME280_pressure;Samples;Min_cycle;Max_cycle;Signal;HPM_P1;HPM_P2
2023/07/08 00:00:16;;;;;;;3.30;2.80;;;17.30;86.30;;;;;;5106756;28;21048;-79
2023/07/08 00:02:43;;;;;;;2.43;1.80;;;17.30;87.10;;;;;;5097609;28;20484;-82
2023/07/08 00:05:14;;;;;;;3.20;2.23;;;17.30;87.30;;;;;;5103848;28;20451;-81
2023/07/08 00:07:42;;;;;;;2.50;2.30;;;17.30;87.20;;;;;;5104725;28;20500;-81
2023/07/08 00:10:18;;;;;;;3.43;3.13;;;17.20;87.60;;;;;;5092638;28;20456;-80
2023/07/08 00:12:47;;;;;;;3.67;3.00;;;17.20;87.80;;;;;;5102165;28;20535;-81
2023/07/08 00:15:14;;;;;;;2.47;2.27;;;17.20;88.30;;;;;;5111267;28;20516;-81
2023/07/08 00:17:41;;;;;;;2.37;2.17;;;17.10;88.30;;;;;;5120982;27;20511;-83
2023/07/08 00:20:20;;;;;;;5.63;2.73;;;17.10;88.20;;;;;;5097043;27;20986;-78
2023/07/08 00:22:49;;;;;;;3.03;2.80;;;17.20;88.20;;;;;;5106531;28;20450;-79
2023/07/08 00:25:16;;;;;;;2.60;2.40;;;17.20;88.10;;;;;;5100296;27;20468;-80
2023/07/08 00:27:43;;;;;;;4.23;3.00;;;17.10;89.40;;;;;;5099167;28;20507;-79
2023/07/08 00:30:21;;;;;;;3.37;2.90;;;17.10;89.30;;;;;;5104468;28;20527;-82
2023/07/08 00:32:53;;;;;;;3.00;2.23;;;17.10;88.70;;;;;;5113772;27;20558;-80
2023/07/08 00:35:23;;;;;;;2.53;2.33;;;17.00;89.20;;;;;;5101704;27;20492;-81
2023/07/08 00:37:52;;;;;;;3.47;2.20;;;16.90;90.00;;;;;;5110506;28;20448;-80
2023/07/08 00:40:21;;;;;;;4.40;3.50;;;17.00;90.20;;;;;;5105125;27;20826;-81
2023/07/08 00:42:50;;;;;;;4.10;2.50;;;16.90;90.40;;;;;;5097193;28;20444;-79
2023/07/08 00:45:28;;;;;;;3.50;2.17;;;16.90;90.60;;;;;;5106035;27;20884;-80
2023/07/08 00:47:56;;;;;;;3.30;3.00;;;16.70;91.00;;;;;;5114763;27;20487;-80
2023/07/08 00:50:24;;;;;;;2.70;2.30;;;16.70;91.50;;;;;;5102527;28;20540;-80
2023/07/08 00:52:52;;;;;;;5.73;3.00;;;16.60;91.90;;;;;;5097579;28;20477;-81
2023/07/08 00:55:19;;;;;;;3.03;2.20;;;16.50;92.10;;;;;;5100832;28;20945;-79
2023/07/08 00:57:46;;;;;;;3.57;3.27;;;16.50;92.30;;;;;;5114206;27;21149;-78
2023/07/08 01:00:16;;;;;;;2.30;2.10;;;16.50;92.70;;;;;;5101058;27;20448;-80
2023/07/08 01:02:46;;;;;;;3.20;2.90;;;16.50;92.70;;;;;;5104392;28;20811;-81
2023/07/08 01:05:18;;;;;;;4.63;3.03;;;16.50;92.60;;;;;;5104217;27;20458;-80
2023/07/08 01:07:51;;;;;;;2.40;2.20;;;16.50;92.50;;;;;;5104832;28;20454;-79
2023/07/08 01:10:24;;;;;;;3.53;2.60;;;16.60;92.60;;;;;;5104374;27;20468;-78
2023/07/08 01:12:55;;;;;;;5.30;2.20;;;16.70;91.90;;;;;;5101290;27;20531;-79
2023/07/08 01:15:27;;;;;;;8.17;3.90;;;16.70;91.90;;;;;;5110435;27;20447;-80
2023/07/08 01:17:56;;;;;;;2.70;2.40;;;16.70;91.90;;;;;;5104679;28;20922;-81
2023/07/08 01:20:23;;;;;;;3.07;2.77;;;16.70;92.10;;;;;;5088472;28;20471;-79
2023/07/08 01:22:51;;;;;;;3.87;3.23;;;16.70;92.20;;;;;;5100899;28;20962;-81
2023/07/08 01:25:18;;;;;;;5.37;4.97;;;16.70;92.00;;;;;;5103704;28;20536;-81
2023/07/08 01:27:48;;;;;;;3.10;2.80;;;16.70;91.80;;;;;;5105044;28;20463;-77
2023/07/08 01:30:17;;;;;;;2.73;2.53;;;16.70;91.80;;;;;;5109121;28;20457;-77
2023/07/08 01:32:49;;;;;;;3.17;2.87;;;16.60;91.80;;;;;;5101770;27;20962;-80
2023/07/08 01:35:17;;;;;;;3.13;2.60;;;16.60;92.20;;;;;;5096492;28;21062;-80
2023/07/08 01:37:49;;;;;;;3.57;2.47;;;16.50;92.40;;;;;;5105484;28;21020;-82
2023/07/08 01:40:25;;;;;;;4.77;3.67;;;16.50;93.00;;;;;;5099615;28;20539;-80
2023/07/08 01:42:52;;;;;;;2.97;2.40;;;16.30;93.30;;;;;;5104486;28;20443;-79
2023/07/08 01:45:22;;;;;;;8.30;3.80;;;16.20;93.80;;;;;;5091251;27;21173;-81
2023/07/08 01:47:53;;;;;;;3.50;3.03;;;16.10;94.10;;;;;;5105828;28;20492;-77
2023/07/08 01:50:21;;;;;;;4.63;3.20;;;16.10;94.40;;;;;;5101651;28;20442;-83
2023/07/08 01:52:50;;;;;;;4.50;2.90;;;16.10;94.60;;;;;;5103179;28;20945;-78
2023/07/08 01:55:24;;;;;;;2.90;2.70;;;16.10;94.40;;;;;;5108774;27;21096;-78
2023/07/08 01:57:53;;;;;;;2.57;2.37;;;16.10;94.40;;;;;;5110969;27;20540;-79
2023/07/08 02:00:20;;;;;;;2.70;2.50;;;16.10;94.40;;;;;;5110910;27;20443;-79
2023/07/08 02:02:48;;;;;;;3.70;2.43;;;16.10;94.50;;;;;;5100046;27;20487;-78
2023/07/08 02:05:15;;;;;;;3.63;2.90;;;16.10;94.50;;;;;;5107600;28;20961;-79
2023/07/08 02:07:42;;;;;;;5.50;2.40;;;16.10;94.50;;;;;;5109072;28;20454;-82
2023/07/08 02:10:09;;;;;;;3.47;2.60;;;16.10;94.90;;;;;;5107368;27;20462;-78
2023/07/08 02:12:38;;;;;;;4.43;3.13;;;16.00;94.90;;;;;;5113957;27;20466;-78
2023/07/08 02:15:06;;;;;;;3.90;2.87;;;16.00;94.80;;;;;;5105130;28;20543;-78
2023/07/08 02:17:34;;;;;;;6.63;2.50;;;16.00;95.00;;;;;;5094952;27;20455;-80
2023/07/08 02:20:01;;;;;;;3.13;2.83;;;16.00;94.90;;;;;;5106357;28;20459;-78
2023/07/08 02:22:27;;;;;;;3.83;3.20;;;16.00;95.10;;;;;;5098639;28;20463;-79
2023/07/08 02:24:54;;;;;;;3.80;2.37;;;16.00;95.30;;;;;;5099030;28;20522;-78
2023/07/08 02:27:21;;;;;;;3.40;2.80;;;16.00;95.00;;;;;;5105555;28;21192;-81
2023/07/08 02:29:50;;;;;;;6.50;2.73;;;15.90;95.30;;;;;;5107716;28;20485;-80
2023/07/08 02:32:18;;;;;;;3.77;2.30;;;16.00;94.70;;;;;;5107732;28;20451;-79
2023/07/08 02:34:45;;;;;;;5.37;3.20;;;16.00;95.00;;;;;;5089416;28;20490;-79
2023/07/08 02:37:12;;;;;;;5.50;3.77;;;16.00;96.00;;;;;;5103548;28;20462;-80
2023/07/08 02:39:39;;;;;;;2.73;2.10;;;15.90;96.20;;;;;;5101951;28;20459;-80
2023/07/08 02:42:06;;;;;;;3.07;2.83;;;15.80;96.20;;;;;;5105458;28;20507;-79
2023/07/08 02:44:33;;;;;;;2.50;2.30;;;15.70;96.20;;;;;;5100141;28;20447;-81
2023/07/08 02:47:01;;;;;;;2.50;1.77;;;15.70;96.60;;;;;;5099962;27;20454;-82
2023/07/08 02:49:28;;;;;;;4.63;3.10;;;15.60;96.60;;;;;;5108518;27;20454;-78
2023/07/08 02:51:55;;;;;;;4.70;3.27;;;15.70;96.20;;;;;;5107083;28;20505;-79
2023/07/08 02:54:22;;;;;;;2.60;2.40;;;15.70;96.00;;;;;;5094084;27;20568;-82
2023/07/08 02:56:49;;;;;;;3.23;2.47;;;15.70;95.70;;;;;;5103615;28;20527;-80
2023/07/08 02:59:16;;;;;;;3.53;3.17;;;15.80;95.60;;;;;;5115412;27;21166;-81
2023/07/08 03:01:43;;;;;;;5.83;2.57;;;15.80;95.50;;;;;;5107846;27;20499;-80
2023/07/08 03:04:12;;;;;;;4.10;2.53;;;15.70;95.80;;;;;;5105367;27;20490;-80
2023/07/08 03:06:41;;;;;;;3.63;3.03;;;15.80;95.60;;;;;;5107144;28;20472;-79
2023/07/08 03:09:08;;;;;;;2.07;1.80;;;15.70;95.80;;;;;;5090838;28;20476;-81
2023/07/08 03:11:36;;;;;;;3.10;2.43;;;15.80;95.40;;;;;;5090794;28;20959;-80
2023/07/08 03:14:03;;;;;;;3.00;2.20;;;15.80;95.60;;;;;;5114563;27;20482;-81
2023/07/08 03:16:30;;;;;;;2.90;2.30;;;15.80;95.50;;;;;;5106875;28;20458;-80
2023/07/08 03:18:57;;;;;;;3.30;2.53;;;15.80;95.40;;;;;;5101249;28;20462;-79
2023/07/08 03:21:25;;;;;;;3.10;2.87;;;15.80;95.60;;;;;;5099108;28;20512;-79
2023/07/08 03:23:53;;;;;;;3.07;2.63;;;15.80;95.70;;;;;;5105756;28;20454;-82
2023/07/08 03:26:22;;;;;;;3.33;2.60;;;15.80;95.80;;;;;;5103284;28;20535;-80
2023/07/08 03:28:49;;;;;;;2.53;1.93;;;15.80;95.60;;;;;;5107075;28;20454;-79
2023/07/08 03:31:17;;;;;;;3.00;2.63;;;15.80;95.60;;;;;;5106309;28;20514;-80
2023/07/08 03:33:44;;;;;;;3.07;2.53;;;15.80;95.60;;;;;;5094730;28;20471;-82
2023/07/08 03:36:16;;;;;;;2.17;1.97;;;15.80;95.70;;;;;;5089183;28;20448;-82
2023/07/08 03:38:44;;;;;;;3.03;2.13;;;15.80;95.60;;;;;;5106568;28;20441;-80
2023/07/08 03:41:11;;;;;;;3.60;3.30;;;15.90;95.20;;;;;;5099246;28;21059;-82
2023/07/08 03:43:38;;;;;;;3.63;2.90;;;15.90;95.30;;;;;;5106476;28;20439;-78
2023/07/08 03:46:05;;;;;;;3.20;2.90;;;15.90;95.00;;;;;;5097823;28;20503;-82
2023/07/08 03:48:32;;;;;;;4.13;2.97;;;15.90;95.10;;;;;;5108317;27;20870;-79
2023/07/08 03:50:59;;;;;;;2.50;2.30;;;16.00;94.60;;;;;;5097948;28;20446;-79
2023/07/08 03:53:26;;;;;;;2.53;2.00;;;15.90;95.50;;;;;;5106140;28;20841;-80
2023/07/08 03:55:54;;;;;;;2.93;2.07;;;15.90;95.50;;;;;;5097474;28;20486;-79
2023/07/08 03:58:21;;;;;;;2.23;1.77;;;16.00;95.30;;;;;;5103016;27;20455;-79
2023/07/08 04:00:48;;;;;;;4.00;2.50;;;16.00;95.00;;;;;;5097871;28;20458;-79
2023/07/08 04:03:15;;;;;;;2.23;2.03;;;16.10;95.10;;;;;;5108387;28;20475;-80
2023/07/08 04:05:42;;;;;;;3.20;1.90;;;16.10;94.80;;;;;;5094086;28;20527;-79
2023/07/08 04:08:09;;;;;;;3.20;2.70;;;16.20;95.10;;;;;;5107184;28;20728;-79
2023/07/08 04:10:36;;;;;;;3.27;2.97;;;16.20;94.40;;;;;;5102738;28;20523;-83
2023/07/08 04:13:04;;;;;;;3.60;2.70;;;16.30;94.10;;;;;;5102525;28;20465;-79
2023/07/08 04:15:31;;;;;;;11.60;2.40;;;16.30;94.10;;;;;;5101040;28;20486;-79
2023/07/08 04:17:58;;;;;;;3.20;2.53;;;16.30;94.30;;;;;;5105179;28;20507;-82
2023/07/08 04:20:25;;;;;;;3.70;2.73;;;16.40;94.40;;;;;;5101133;28;21211;-79
2023/07/08 04:22:52;;;;;;;3.03;2.83;;;16.40;93.80;;;;;;5106531;28;20516;-81
2023/07/08 04:25:20;;;;;;;4.27;2.37;;;16.50;93.60;;;;;;5099751;28;21177;-80
2023/07/08 04:27:47;;;;;;;2.90;2.53;;;16.50;93.30;;;;;;5106689;28;20470;-79
2023/07/08 04:30:23;;;;;;;3.77;2.30;;;16.60;93.60;;;;;;5102935;28;20466;-80
2023/07/08 04:32:51;;;;;;;2.90;2.00;;;16.70;93.80;;;;;;5102565;28;20524;-80
2023/07/08 04:35:19;;;;;;;4.13;2.13;;;16.80;93.30;;;;;;5105627;28;20570;-80
2023/07/08 04:37:47;;;;;;;3.20;2.43;;;17.10;93.00;;;;;;5106160;28;20452;-79
2023/07/08 04:40:19;;;;;;;3.47;3.17;;;17.30;92.20;;;;;;5103656;28;20498;-81
2023/07/08 04:42:47;;;;;;;2.43;2.20;;;17.50;91.50;;;;;;5106376;28;20467;-81
2023/07/08 04:45:17;;;;;;;4.60;2.50;;;17.40;91.40;;;;;;5105644;28;20470;-79
2023/07/08 04:47:46;;;;;;;6.43;3.60;;;17.50;91.40;;;;;;5099729;28;20539;-79
2023/07/08 04:50:13;;;;;;;7.90;2.20;;;17.70;91.10;;;;;;5100869;28;20459;-81
2023/07/08 04:52:40;;;;;;;2.13;2.03;;;17.80;90.40;;;;;;5105275;28;20521;-78
2023/07/08 04:55:09;;;;;;;3.53;2.97;;;17.90;90.60;;;;;;5106251;28;20486;-81
2023/07/08 04:57:37;;;;;;;4.60;2.50;;;18.10;89.80;;;;;;5108821;27;20450;-79
2023/07/08 05:00:07;;;;;;;3.90;2.00;;;18.10;87.90;;;;;;5105914;28;20486;-78
2023/07/08 05:02:36;;;;;;;5.07;2.43;;;18.10;86.60;;;;;;5101014;28;20513;-78
2023/07/08 05:05:03;;;;;;;4.13;3.73;;;18.10;87.90;;;;;;5109829;28;20519;-78
2023/07/08 05:07:30;;;;;;;2.23;1.70;;;18.30;87.30;;;;;;5104290;28;21063;-81
2023/07/08 05:09:57;;;;;;;2.60;2.13;;;18.50;85.40;;;;;;5102075;28;20986;-79
2023/07/08 05:12:24;;;;;;;2.60;2.23;;;18.60;84.40;;;;;;5102694;28;20464;-77
2023/07/08 05:14:51;;;;;;;2.43;1.87;;;18.80;84.00;;;;;;5106789;27;20481;-77
2023/07/08 05:17:18;;;;;;;2.10;1.90;;;19.00;84.30;;;;;;5098747;27;20792;-77
2023/07/08 05:19:49;;;;;;;6.10;1.90;;;19.10;83.20;;;;;;5103494;28;20519;-78
2023/07/08 05:22:18;;;;;;;3.47;2.47;;;19.20;83.00;;;;;;5106578;28;20511;-77
2023/07/08 05:24:45;;;;;;;5.90;3.00;;;19.40;82.70;;;;;;5103536;28;20876;-77
2023/07/08 05:27:13;;;;;;;3.50;2.27;;;19.60;81.20;;;;;;5103659;28;20509;-81
2023/07/08 05:29:40;;;;;;;3.80;2.13;;;19.70;80.00;;;;;;5108755;28;20453;-80
2023/07/08 05:32:08;;;;;;;4.60;4.00;;;19.70;78.20;;;;;;5100063;28;21152;-78
2023/07/08 05:34:35;;;;;;;2.33;2.10;;;19.70;80.00;;;;;;5096893;28;20538;-79
2023/07/08 05:37:03;;;;;;;3.70;2.00;;;19.80;80.40;;;;;;5096886;28;20560;-79
2023/07/08 05:39:31;;;;;;;3.23;2.80;;;20.10;80.40;;;;;;5107638;27;20466;-79
2023/07/08 05:41:58;;;;;;;3.80;2.17;;;20.20;78.00;;;;;;5100253;28;20953;-77
2023/07/08 05:44:25;;;;;;;3.07;2.83;;;20.00;76.20;;;;;;5105498;28;20455;-78
2023/07/08 05:46:52;;;;;;;2.97;2.67;;;19.90;76.60;;;;;;5106176;27;21026;-83
2023/07/08 05:49:19;;;;;;;3.87;1.70;;;20.10;76.40;;;;;;5105681;27;21026;-82
2023/07/08 05:51:46;;;;;;;4.20;2.53;;;20.20;76.10;;;;;;5108750;28;21232;-81
2023/07/08 05:54:15;;;;;;;2.50;2.30;;;20.20;75.80;;;;;;5100221;27;20475;-80
2023/07/08 05:56:42;;;;;;;4.10;2.27;;;20.10;76.20;;;;;;5107843;27;20450;-82
2023/07/08 05:59:09;;;;;;;2.03;1.77;;;20.00;75.70;;;;;;5103113;27;20453;-78
2023/07/08 06:01:36;;;;;;;2.67;2.30;;;20.00;76.50;;;;;;5103781;28;20467;-81
2023/07/08 06:04:04;;;;;;;3.17;2.30;;;20.20;75.80;;;;;;5100560;27;20469;-79
2023/07/08 06:06:31;;;;;;;1.80;1.70;;;20.20;74.80;;;;;;5109967;28;20840;-80
2023/07/08 06:09:00;;;;;;;2.37;2.17;;;20.00;76.50;;;;;;5103712;28;20492;-78
2023/07/08 06:11:28;;;;;;;3.03;2.40;;;20.10;78.30;;;;;;5107404;27;21028;-78
2023/07/08 06:13:55;;;;;;;2.43;2.00;;;20.30;78.40;;;;;;5109163;27;20447;-78
2023/07/08 06:16:22;;;;;;;2.50;2.30;;;20.20;75.90;;;;;;5102875;28;20518;-79
2023/07/08 06:18:49;;;;;;;5.53;3.00;;;20.30;76.70;;;;;;5107373;27;20563;-79
2023/07/08 06:21:16;;;;;;;3.53;2.60;;;20.60;76.70;;;;;;5091968;28;20505;-80
2023/07/08 06:23:43;;;;;;;6.00;2.97;;;20.70;76.20;;;;;;5088066;28;20469;-78
2023/07/08 06:26:10;;;;;;;2.67;2.47;;;20.50;76.10;;;;;;5104616;28;20520;-81
2023/07/08 06:28:38;;;;;;;3.63;1.93;;;20.50;78.60;;;;;;5106998;28;20434;-79
2023/07/08 06:31:05;;;;;;;2.70;2.50;;;20.60;75.40;;;;;;5104296;27;20893;-79
2023/07/08 06:33:32;;;;;;;3.53;1.87;;;20.70;77.30;;;;;;5102326;27;20511;-78
2023/07/08 06:35:59;;;;;;;3.00;2.40;;;20.70;76.50;;;;;;5097007;27;20527;-82
2023/07/08 06:38:26;;;;;;;5.00;1.87;;;20.80;77.70;;;;;;5107542;27;20454;-79
2023/07/08 06:40:53;;;;;;;2.70;1.90;;;21.20;76.20;;;;;;5103693;28;20778;-82
2023/07/08 06:43:19;;;;;;;3.87;2.07;;;21.60;74.10;;;;;;5106324;28;20515;-77
2023/07/08 06:45:48;;;;;;;3.00;2.80;;;21.70;70.70;;;;;;5101357;28;20451;-76
2023/07/08 06:48:15;;;;;;;6.47;1.93;;;22.10;70.00;;;;;;5103745;28;20463;-80
2023/07/08 06:50:43;;;;;;;3.33;1.67;;;22.00;66.70;;;;;;5104985;28;21106;-79
2023/07/08 06:53:10;;;;;;;3.70;3.40;;;22.10;66.50;;;;;;5093085;28;20968;-77
2023/07/08 06:55:37;;;;;;;2.20;1.97;;;22.50;68.80;;;;;;5096447;27;20567;-77
2023/07/08 06:58:04;;;;;;;2.57;2.10;;;22.50;67.80;;;;;;5109098;27;20946;-79
2023/07/08 07:00:31;;;;;;;2.40;1.77;;;22.50;64.60;;;;;;5106042;28;20458;-79
2023/07/08 07:02:59;;;;;;;3.17;2.80;;;22.60;65.00;;;;;;5109846;27;20474;-79
2023/07/08 07:05:27;;;;;;;3.53;2.00;;;23.00;63.90;;;;;;5096036;28;21014;-80
2023/07/08 07:07:54;;;;;;;2.90;2.30;;;23.10;62.90;;;;;;5107210;28;20998;-82
2023/07/08 07:10:21;;;;;;;2.77;2.20;;;23.30;63.80;;;;;;5101188;28;21277;-78
2023/07/08 07:12:48;;;;;;;2.73;2.53;;;23.30;59.60;;;;;;5103031;27;20470;-80
2023/07/08 07:15:15;;;;;;;7.00;2.57;;;23.40;61.00;;;;;;5104806;28;20478;-77
2023/07/08 07:17:42;;;;;;;2.10;1.87;;;23.50;62.70;;;;;;5107384;27;20451;-80
2023/07/08 07:20:11;;;;;;;2.80;1.90;;;23.80;59.90;;;;;;5097553;28;20491;-79
2023/07/08 07:22:38;;;;;;;2.60;2.40;;;24.00;59.20;;;;;;5102634;28;20462;-77
2023/07/08 07:25:06;;;;;;;2.40;2.20;;;24.30;59.40;;;;;;5096809;28;20465;-79
2023/07/08 07:27:33;;;;;;;1.67;1.57;;;24.50;59.40;;;;;;5103413;28;20464;-80
2023/07/08 07:30:00;;;;;;;5.23;2.20;;;24.40;56.80;;;;;;5104213;28;20478;-79
2023/07/08 07:32:29;;;;;;;10.23;5.30;;;24.50;58.80;;;;;;5103658;28;20480;-81
2023/07/08 07:34:57;;;;;;;3.00;2.00;;;24.30;58.00;;;;;;5101096;28;21144;-80
2023/07/08 07:37:25;;;;;;;3.50;2.40;;;24.30;58.60;;;;;;5102841;28;20835;-78
2023/07/08 07:39:52;;;;;;;2.70;2.13;;;24.50;58.70;;;;;;5093853;28;20523;-77
2023/07/08 07:42:20;;;;;;;2.50;2.30;;;24.40;57.00;;;;;;5104709;27;20453;-78
2023/07/08 07:44:47;;;;;;;2.60;2.27;;;24.70;56.60;;;;;;5103821;28;20475;-78
2023/07/08 07:47:15;;;;;;;3.17;2.70;;;24.60;56.40;;;;;;5100909;28;21011;-78
2023/07/08 07:49:42;;;;;;;3.03;1.77;;;24.70;56.50;;;;;;5100204;28;20505;-77
2023/07/08 07:52:10;;;;;;;2.00;1.90;;;25.00;55.70;;;;;;5101434;28;20462;-77
2023/07/08 07:54:39;;;;;;;4.03;2.80;;;25.10;54.50;;;;;;5093784;28;20476;-78
2023/07/08 07:57:06;;;;;;;4.03;2.17;;;24.90;53.40;;;;;;5098888;28;20539;-77
2023/07/08 07:59:33;;;;;;;2.70;2.50;;;24.80;55.50;;;;;;5108035;27;20866;-78
2023/07/08 08:02:00;;;;;;;3.27;2.70;;;24.70;54.30;;;;;;5095673;28;20947;-78
2023/07/08 08:04:27;;;;;;;6.27;2.70;;;24.90;56.00;;;;;;5100329;28;20494;-77
2023/07/08 08:06:54;;;;;;;2.87;2.40;;;25.20;54.80;;;;;;5093366;28;20461;-79
2023/07/08 08:09:21;;;;;;;2.57;2.37;;;25.40;53.90;;;;;;5097456;28;20450;-79
2023/07/08 08:11:51;;;;;;;3.13;2.83;;;25.40;52.90;;;;;;5091913;28;20549;-79
2023/07/08 08:14:18;;;;;;;2.17;1.90;;;25.60;53.80;;;;;;5102546;28;20444;-79
2023/07/08 08:16:45;;;;;;;3.10;2.90;;;26.20;54.70;;;;;;5094882;28;20492;-77
2023/07/08 08:19:12;;;;;;;4.30;2.57;;;26.00;52.40;;;;;;5104130;28;20521;-77
2023/07/08 08:21:39;;;;;;;2.33;2.03;;;26.20;51.30;;;;;;5116277;28;20457;-80
2023/07/08 08:24:06;;;;;;;3.57;2.27;;;26.10;51.00;;;;;;5106153;27;20519;-77
2023/07/08 08:26:33;;;;;;;3.80;2.53;;;26.30;50.20;;;;;;5099873;28;20511;-78
2023/07/08 08:29:02;;;;;;;2.33;2.13;;;26.40;52.30;;;;;;5097077;28;20479;-81
2023/07/08 08:31:31;;;;;;;2.90;2.63;;;26.60;50.70;;;;;;5100251;28;21053;-78
2023/07/08 08:33:57;;;;;;;2.60;2.10;;;26.50;48.00;;;;;;5098031;27;20972;-79
2023/07/08 08:36:24;;;;;;;3.40;3.10;;;26.40;49.30;;;;;;5110648;27;20485;-77
2023/07/08 08:38:51;;;;;;;2.90;2.50;;;26.60;50.60;;;;;;5108057;27;20446;-77
2023/07/08 08:41:21;;;;;;;2.57;2.27;;;26.80;46.90;;;;;;5107209;27;20515;-79
2023/07/08 08:43:50;;;;;;;6.50;3.27;;;26.70;50.50;;;;;;5106813;27;20518;-77
2023/07/08 08:46:28;;;;;;;2.27;2.07;;;26.90;46.30;;;;;;5107558;28;20840;-78
2023/07/08 08:49:00;;;;;;;3.17;2.30;;;27.10;46.40;;;;;;5099383;28;20463;-78
2023/07/08 08:51:29;;;;;;;2.70;2.20;;;27.20;46.40;;;;;;5107654;28;20454;-76
2023/07/08 08:53:58;;;;;;;3.60;2.90;;;27.30;46.30;;;;;;5105758;28;20463;-77
2023/07/08 08:56:29;;;;;;;3.23;2.13;;;27.30;47.90;;;;;;5107127;28;20531;-80
2023/07/08 08:59:02;;;;;;;2.50;2.30;;;27.30;47.00;;;;;;5109043;28;20449;-78
2023/07/08 09:01:30;;;;;;;2.93;2.63;;;27.70;47.30;;;;;;5101995;28;21041;-80
2023/07/08 09:04:01;;;;;;;2.80;2.60;;;27.30;44.60;;;;;;5111081;27;20548;-78
2023/07/08 09:06:31;;;;;;;3.20;2.27;;;27.30;45.20;;;;;;5109102;28;20461;-76
2023/07/08 09:09:03;;;;;;;2.80;2.30;;;27.40;47.10;;;;;;5109075;28;20462;-81
2023/07/08 09:11:41;;;;;;;2.40;2.20;;;27.70;45.00;;;;;;5103653;27;20503;-77
2023/07/08 09:14:15;;;;;;;2.70;2.50;;;27.50;41.20;;;;;;5102385;28;21305;-78
2023/07/08 09:16:49;;;;;;;3.93;2.20;;;27.70;44.00;;;;;;5107572;28;20491;-78
2023/07/08 09:19:23;;;;;;;2.77;2.27;;;27.90;41.70;;;;;;5106604;27;21231;-83
2023/07/08 09:21:57;;;;;;;2.90;2.03;;;27.80;42.40;;;;;;5101748;28;20452;-81
2023/07/08 09:24:32;;;;;;;3.13;2.83;;;27.60;41.00;;;;;;5102007;28;20458;-79
2023/07/08 09:27:02;;;;;;;2.50;2.30;;;27.50;41.60;;;;;;5103962;27;20455;-80
2023/07/08 09:29:29;;;;;;;4.63;2.30;;;27.70;41.30;;;;;;5110434;27;20452;-78
2023/07/08 09:31:59;;;;;;;5.13;2.90;;;27.60;41.30;;;;;;5107316;28;20511;-78
2023/07/08 09:34:41;;;;;;;2.50;2.30;;;27.40;40.70;;;;;;5103373;28;20544;-78
2023/07/08 09:37:25;;;;;;;4.93;2.33;;;27.80;40.70;;;;;;5108527;28;20493;-80
2023/07/08 09:39:53;;;;;;;2.33;1.80;;;27.90;38.30;;;;;;5091897;28;21149;-79
2023/07/08 09:42:21;;;;;;;4.13;2.67;;;28.10;38.90;;;;;;5093695;27;20465;-80
2023/07/08 09:44:48;;;;;;;2.67;2.47;;;28.10;37.80;;;;;;5099239;27;20457;-78
2023/07/08 09:47:24;;;;;;;2.67;2.13;;;28.20;40.70;;;;;;5101877;28;20460;-78
2023/07/08 09:49:54;;;;;;;4.80;3.23;;;28.80;38.70;;;;;;5107123;28;20463;-80
2023/07/08 09:52:21;;;;;;;2.77;2.40;;;28.20;37.10;;;;;;5100264;28;20463;-79
2023/07/08 09:54:48;;;;;;;2.07;1.97;;;28.00;36.00;;;;;;5109128;28;20455;-78
2023/07/08 09:57:25;;;;;;;6.87;2.43;;;28.30;36.40;;;;;;5101700;27;20480;-79
2023/07/08 09:59:57;;;;;;;6.03;3.60;;;28.30;36.20;;;;;;5104905;28;20533;-78
2023/07/08 10:02:30;;;;;;;2.27;2.07;;;28.50;34.30;;;;;;5104519;28;20449;-80
2023/07/08 10:05:00;;;;;;;2.90;2.30;;;28.90;34.90;;;;;;5097489;28;20449;-78
2023/07/08 10:07:30;;;;;;;3.20;2.90;;;28.60;36.20;;;;;;5103571;28;20460;-80
2023/07/08 10:10:00;;;;;;;2.23;2.03;;;29.20;35.70;;;;;;5112399;27;20453;-81
2023/07/08 10:12:28;;;;;;;3.77;2.33;;;29.60;36.00;;;;;;5104633;27;20959;-78
2023/07/08 10:14:59;;;;;;;6.00;2.63;;;29.70;33.90;;;;;;5103734;27;20451;-81
2023/07/08 10:17:29;;;;;;;3.17;2.90;;;30.10;36.60;;;;;;5103376;28;20493;-80
2023/07/08 10:19:56;;;;;;;4.07;3.10;;;30.80;31.40;;;;;;5110054;27;20450;-79
2023/07/08 10:22:42;;;;;;;4.27;2.40;;;30.40;29.70;;;;;;5105758;28;20846;-81
2023/07/08 10:25:25;;;;;;;2.40;2.20;;;31.00;33.40;;;;;;5105683;27;21005;-81
2023/07/08 10:28:02;;;;;;;2.47;1.80;;;31.00;31.60;;;;;;5105054;28;20452;-82
2023/07/08 10:30:37;;;;;;;2.20;2.00;;;30.80;32.40;;;;;;5107705;28;20454;-78
2023/07/08 10:33:49;;;;;;;3.67;2.60;;;30.80;30.30;;;;;;5101360;28;20923;-79
2023/07/08 10:36:26;;;;;;;3.73;1.90;;;31.10;31.60;;;;;;5069814;28;20485;-80
2023/07/08 10:39:12;;;;;;;3.93;2.10;;;31.20;32.60;;;;;;5106323;28;20850;-78
2023/07/08 10:41:51;;;;;;;2.10;2.00;;;30.90;30.70;;;;;;5106593;27;20461;-78
2023/07/08 10:44:26;;;;;;;1.97;1.70;;;30.80;30.20;;;;;;5092936;28;20490;-80
2023/07/08 10:47:02;;;;;;;3.43;2.60;;;31.00;32.40;;;;;;5101746;28;21007;-81
2023/07/08 10:49:52;;;;;;;2.97;2.37;;;31.30;29.00;;;;;;5104133;27;20454;-78
2023/07/08 10:52:46;;;;;;;3.10;2.50;;;30.90;28.20;;;;;;5107326;28;20446;-80
2023/07/08 10:55:30;;;;;;;3.83;3.27;;;30.90;31.20;;;;;;5098063;27;20470;-80
2023/07/08 10:58:26;;;;;;;2.57;2.10;;;31.00;28.70;;;;;;5106105;28;20482;-79
2023/07/08 11:01:03;;;;;;;3.50;2.47;;;31.30;29.00;;;;;;5098657;28;20463;-81
2023/07/08 11:04:04;;;;;;;4.10;2.90;;;31.40;28.50;;;;;;5106749;28;20486;-79
2023/07/08 11:06:44;;;;;;;2.40;2.20;;;30.90;30.00;;;;;;5070986;28;20454;-79
2023/07/08 11:09:19;;;;;;;3.73;2.30;;;31.40;29.30;;;;;;5103740;27;20507;-78
2023/07/08 11:11:52;;;;;;;2.10;1.90;;;31.90;29.90;;;;;;5100693;27;21062;-79
2023/07/08 11:14:24;;;;;;;3.87;2.57;;;31.90;29.20;;;;;;5105994;28;20445;-78
2023/07/08 11:16:58;;;;;;;2.87;2.67;;;31.60;28.60;;;;;;5106392;28;20486;-78
2023/07/08 11:19:32;;;;;;;3.20;2.50;;;31.60;29.00;;;;;;5103255;28;20458;-79
2023/07/08 11:22:04;;;;;;;3.03;2.37;;;31.70;28.10;;;;;;5106296;28;20462;-81
2023/07/08 11:24:37;;;;;;;4.90;2.37;;;31.90;26.80;;;;;;5103369;28;20582;-78
2023/07/08 11:27:09;;;;;;;3.10;2.80;;;31.90;27.90;;;;;;5098603;27;20465;-79
2023/07/08 11:29:40;;;;;;;2.13;2.03;;;32.30;26.80;;;;;;5098822;28;20508;-79
2023/07/08 11:32:13;;;;;;;2.70;2.50;;;31.90;26.40;;;;;;5101378;28;20498;-80
2023/07/08 11:34:42;;;;;;;2.67;2.47;;;31.60;25.30;;;;;;5089794;28;20500;-79
2023/07/08 11:37:10;;;;;;;2.73;2.33;;;31.40;27.40;;;;;;5101200;27;20490;-79
2023/07/08 11:39:44;;;;;;;3.17;2.30;;;30.90;26.40;;;;;;5106009;28;20457;-81
2023/07/08 11:42:20;;;;;;;2.73;2.50;;;31.30;26.40;;;;;;5104506;28;20508;-79
2023/07/08 11:44:52;;;;;;;2.30;2.10;;;31.40;23.50;;;;;;5102109;28;20454;-82
2023/07/08 11:47:25;;;;;;;2.70;2.37;;;31.50;23.40;;;;;;5106797;28;20867;-78
2023/07/08 11:49:54;;;;;;;4.47;2.87;;;31.60;26.00;;;;;;5099776;28;20446;-79
2023/07/08 11:52:23;;;;;;;3.50;2.27;;;31.10;24.40;;;;;;5099229;28;20454;-78
2023/07/08 11:55:03;;;;;;;2.43;2.20;;;31.20;25.70;;;;;;5118892;27;20520;-78
2023/07/08 11:57:37;;;;;;;3.50;2.97;;;31.50;24.10;;;;;;5093046;27;21053;-82
2023/07/08 12:00:18;;;;;;;2.90;2.73;;;31.80;23.60;;;;;;5102607;28;20447;-78
2023/07/08 12:02:52;;;;;;;2.70;2.50;;;31.90;24.40;;;;;;5097852;28;20498;-79
2023/07/08 12:05:30;;;;;;;3.00;2.70;;;32.10;24.80;;;;;;5102950;28;20507;-82
2023/07/08 12:08:00;;;;;;;2.27;2.07;;;32.40;24.60;;;;;;5093266;28;20451;-78
2023/07/08 12:10:34;;;;;;;3.20;2.60;;;32.20;25.70;;;;;;5092681;28;20462;-79
2023/07/08 12:13:01;;;;;;;2.30;2.13;;;31.40;25.90;;;;;;5092384;28;20458;-79
2023/07/08 12:15:30;;;;;;;2.70;2.30;;;31.40;23.20;;;;;;5098476;28;20450;-81
2023/07/08 12:18:00;;;;;;;6.23;3.20;;;31.40;25.30;;;;;;5105115;28;20906;-79
2023/07/08 12:20:29;;;;;;;3.20;2.17;;;31.80;25.80;;;;;;5111768;28;21007;-78
2023/07/08 12:22:57;;;;;;;2.37;2.17;;;31.60;24.50;;;;;;5106580;28;20466;-81
2023/07/08 12:25:31;;;;;;;3.20;3.00;;;31.60;25.50;;;;;;5102080;28;20463;-77
2023/07/08 12:27:59;;;;;;;2.50;2.30;;;32.10;23.70;;;;;;5103755;28;20476;-78
2023/07/08 12:30:29;;;;;;;4.83;2.50;;;32.30;22.40;;;;;;5099785;28;20446;-78
2023/07/08 12:32:59;;;;;;;2.67;2.43;;;33.00;25.00;;;;;;5097493;28;21027;-80
2023/07/08 12:35:29;;;;;;;2.53;1.80;;;33.20;22.80;;;;;;5095463;28;20917;-78
2023/07/08 12:38:00;;;;;;;3.57;2.67;;;32.20;23.00;;;;;;5101830;28;20485;-78
2023/07/08 12:40:29;;;;;;;2.47;2.27;;;31.70;22.70;;;;;;5099905;28;20536;-78
2023/07/08 12:42:59;;;;;;;4.37;2.70;;;31.40;25.20;;;;;;5103143;28;20458;-78
2023/07/08 12:45:27;;;;;;;3.00;2.80;;;31.60;22.70;;;;;;5092303;28;20541;-79
2023/07/08 12:47:54;;;;;;;3.00;2.80;;;32.10;21.90;;;;;;5097688;28;20446;-79
2023/07/08 12:50:21;;;;;;;2.40;2.20;;;32.20;22.60;;;;;;5104808;28;20450;-78
2023/07/08 12:52:48;;;;;;;3.17;2.40;;;32.00;23.80;;;;;;5100371;28;20447;-79
2023/07/08 12:55:16;;;;;;;3.33;3.07;;;32.00;24.50;;;;;;5105597;27;20801;-78
2023/07/08 12:57:48;;;;;;;2.87;2.57;;;32.40;25.40;;;;;;5097334;28;20575;-79
2023/07/08 13:00:22;;;;;;;3.80;3.00;;;32.70;24.00;;;;;;5105503;28;20447;-79